createdAt,value
2019-02-22T00:01:37.208Z,100.00
2019-02-22T00:04:06.682Z,100.00
2019-02-22T00:06:36.197Z,100.00
2019-02-22T00:09:06.902Z,100.00
2019-02-22T00:11:36.391Z,100.00
2019-02-22T00:14:05.891Z,100.00
2019-02-22T00:16:35.433Z,100.00
2019-02-22T00:19:04.921Z,100.00
2019-02-22T00:21:34.423Z,100.00
2019-02-22T00:24:04.039Z,100.00
2019-02-22T00:26:33.564Z,100.00
2019-02-22T00:29:03.076Z,100.00
2019-02-22T00:31:32.604Z,100.00
2019-02-22T00:34:02.106Z,100.00
2019-02-22T00:36:31.683Z,100.00
2019-02-22T00:39:01.156Z,100.00
2019-02-22T00:41:30.649Z,100.00
2019-02-22T00:44:00.207Z,100.00
2019-02-22T00:46:29.714Z,100.00
2019-02-22T00:48:59.205Z,100.00
2019-02-22T00:51:28.723Z,100.00
2019-02-22T00:53:58.250Z,100.00
2019-02-22T00:56:27.781Z,100.00
2019-02-22T00:58:57.275Z,100.00
2019-02-22T01:01:26.765Z,100.00
2019-02-22T01:03:56.364Z,100.00
2019-02-22T01:06:25.881Z,100.00
2019-02-22T01:08:55.439Z,100.00
2019-02-22T01:11:24.947Z,100.00
2019-02-22T01:13:54.482Z,100.00
2019-02-22T01:16:23.987Z,100.00
2019-02-22T01:18:53.482Z,100.00
2019-02-22T01:21:22.991Z,100.00
2019-02-22T01:23:52.499Z,100.00
2019-02-22T01:26:22.117Z,100.00
2019-02-22T01:28:51.584Z,100.00
2019-02-22T01:31:21.089Z,100.00
2019-02-22T01:33:50.588Z,100.00
2019-02-22T01:36:20.093Z,100.00
2019-02-22T01:38:49.614Z,100.00
2019-02-22T01:41:19.123Z,100.00
2019-02-22T01:43:48.641Z,100.00
2019-02-22T01:46:18.134Z,100.00
2019-02-22T01:48:47.698Z,100.00
2019-02-22T01:51:17.184Z,100.00
2019-02-22T01:53:46.671Z,100.00
2019-02-22T01:56:16.193Z,100.00
2019-02-22T01:58:48.646Z,100.00
2019-02-22T02:01:17.003Z,100.00
2019-02-22T02:03:46.504Z,100.00
2019-02-22T02:06:16.004Z,100.00
2019-02-22T02:08:45.723Z,100.00
2019-02-22T02:11:15.219Z,100.00
2019-02-22T02:13:44.736Z,100.00
2019-02-22T02:16:14.236Z,100.00
2019-02-22T02:18:43.746Z,100.00
2019-02-22T02:21:13.247Z,100.00
2019-02-22T02:23:42.755Z,100.00
2019-02-22T02:26:12.264Z,100.00
2019-02-22T02:28:41.775Z,100.00
2019-02-22T02:31:11.293Z,100.00
2019-02-22T02:33:40.788Z,100.00
2019-02-22T02:36:10.300Z,100.00
2019-02-22T02:38:39.796Z,100.00
2019-02-22T02:41:11.469Z,100.00
2019-02-22T02:43:40.549Z,100.00
2019-02-22T02:46:10.030Z,100.00
2019-02-22T02:48:39.599Z,100.00
2019-02-22T02:51:09.097Z,100.00
2019-02-22T02:53:38.609Z,100.00
2019-02-22T02:56:08.140Z,100.00
2019-02-22T02:58:37.655Z,100.00
2019-02-22T03:01:07.140Z,100.00
2019-02-22T03:03:36.801Z,100.00
2019-02-22T03:06:16.922Z,100.00
2019-02-22T03:08:46.429Z,100.00
2019-02-22T03:11:20.592Z,100.00
2019-02-22T03:13:47.192Z,100.00
2019-02-22T03:16:16.766Z,100.00
2019-02-22T03:18:46.262Z,100.00
2019-02-22T03:21:15.762Z,100.00
2019-02-22T03:23:45.274Z,100.00
2019-02-22T03:26:15.722Z,100.00
2019-02-22T03:28:45.238Z,100.00
2019-02-22T03:31:14.750Z,100.00
2019-02-22T03:33:44.289Z,100.00
2019-02-22T03:36:13.763Z,100.00
2019-02-22T03:38:43.274Z,100.00
2019-02-22T03:41:12.792Z,100.00
2019-02-22T03:43:42.294Z,100.00
2019-02-22T03:46:11.798Z,100.00
2019-02-22T03:48:41.310Z,100.00
2019-02-22T03:51:10.872Z,100.00
2019-02-22T03:53:42.019Z,100.00
2019-02-22T03:56:11.792Z,100.00
2019-02-22T03:58:41.362Z,100.00
2019-02-22T04:01:10.999Z,100.00
2019-02-22T04:03:40.570Z,100.00
2019-02-22T04:06:10.137Z,100.00
2019-02-22T04:08:39.628Z,100.00
2019-02-22T04:11:09.125Z,100.00
2019-02-22T04:13:38.701Z,100.00
2019-02-22T04:16:08.253Z,100.00
2019-02-22T04:18:37.935Z,100.00
2019-02-22T04:21:07.498Z,100.00
2019-02-22T04:23:36.985Z,100.00
2019-02-22T04:26:06.562Z,100.00
2019-02-22T04:28:36.058Z,100.00
2019-02-22T04:31:05.647Z,100.00
2019-02-22T04:33:35.242Z,100.00
2019-02-22T04:36:04.746Z,100.00
2019-02-22T04:38:34.257Z,100.00
2019-02-22T04:41:03.771Z,100.00
2019-02-22T04:43:33.366Z,100.00
2019-02-22T04:46:02.853Z,100.00
2019-02-22T04:48:32.369Z,100.00
2019-02-22T04:51:01.867Z,100.00
2019-02-22T04:53:31.428Z,100.00
2019-02-22T04:56:00.934Z,100.00
2019-02-22T04:58:30.431Z,100.00
2019-02-22T05:00:59.939Z,100.00
2019-02-22T05:03:29.439Z,100.00
2019-02-22T05:05:58.941Z,100.00
2019-02-22T05:08:28.449Z,100.00
2019-02-22T05:10:57.982Z,100.00
2019-02-22T05:13:27.488Z,100.00
2019-02-22T05:15:56.981Z,100.00
2019-02-22T05:18:26.502Z,100.00
2019-02-22T05:20:56.000Z,100.00
2019-02-22T05:23:25.508Z,100.00
2019-02-22T05:25:55.055Z,100.00
2019-02-22T05:28:24.554Z,100.00
2019-02-22T05:30:54.073Z,100.00
2019-02-22T05:33:23.566Z,100.00
2019-02-22T05:35:53.065Z,100.00
2019-02-22T05:38:22.574Z,100.00
2019-02-22T05:40:52.094Z,100.00
2019-02-22T05:43:21.575Z,100.00
2019-02-22T05:45:51.169Z,100.00
2019-02-22T05:48:20.675Z,100.00
2019-02-22T05:50:50.178Z,100.00
2019-02-22T05:53:19.661Z,100.00
2019-02-22T05:55:49.156Z,100.00
2019-02-22T05:58:18.674Z,100.00
2019-02-22T06:00:48.174Z,100.00
2019-02-22T06:03:17.671Z,100.00
2019-02-22T06:05:47.630Z,100.00
2019-02-22T06:08:17.193Z,100.00
2019-02-22T06:10:46.685Z,100.00
2019-02-22T06:13:16.212Z,100.00
2019-02-22T06:15:45.718Z,100.00
2019-02-22T06:18:15.233Z,100.00
2019-02-22T06:20:44.728Z,100.00
2019-02-22T06:23:14.245Z,100.00
2019-02-22T06:25:43.761Z,100.00
2019-02-22T06:28:13.267Z,100.00
2019-02-22T06:30:42.753Z,100.00
2019-02-22T06:33:12.294Z,100.00
2019-02-22T06:35:41.803Z,100.00
2019-02-22T06:38:11.361Z,100.00
2019-02-22T06:40:40.877Z,100.00
2019-02-22T06:43:10.458Z,100.00
2019-02-22T06:45:39.951Z,100.00
2019-02-22T06:48:09.455Z,100.00
2019-02-22T06:50:38.965Z,100.00
2019-02-22T06:53:08.555Z,100.00
2019-02-22T06:55:38.074Z,100.00
2019-02-22T06:58:07.598Z,100.00
2019-02-22T07:00:37.138Z,100.00
2019-02-22T07:03:12.452Z,100.00
2019-02-22T07:05:42.008Z,100.00
2019-02-22T07:08:11.491Z,100.00
2019-02-22T07:10:54.717Z,100.00
2019-02-22T07:13:24.563Z,100.00
2019-02-22T07:15:54.155Z,100.00
2019-02-22T07:18:23.677Z,100.00
2019-02-22T07:20:53.194Z,100.00
2019-02-22T07:23:22.809Z,100.00
2019-02-22T07:25:52.298Z,100.00
2019-02-22T07:28:21.810Z,100.00
2019-02-22T07:30:51.316Z,100.00
2019-02-22T07:33:20.842Z,100.00
2019-02-22T07:35:50.419Z,100.00
2019-02-22T07:38:19.917Z,100.00
2019-02-22T07:40:49.436Z,100.00
2019-02-22T07:43:18.948Z,100.00
2019-02-22T07:45:48.445Z,100.00
2019-02-22T07:48:17.939Z,100.00
2019-02-22T07:50:56.868Z,100.00
2019-02-22T07:53:18.663Z,100.00
2019-02-22T07:55:48.476Z,100.00
2019-02-22T07:58:18.048Z,100.00
2019-02-22T08:00:47.654Z,100.00
2019-02-22T08:03:17.150Z,100.00
2019-02-22T08:05:46.669Z,100.00
2019-02-22T08:08:16.157Z,100.00
2019-02-22T08:10:45.726Z,100.00
2019-02-22T08:13:19.783Z,100.00
2019-02-22T08:15:46.501Z,100.00
2019-02-22T08:18:16.025Z,100.00
2019-02-22T08:20:45.541Z,100.00
2019-02-22T08:23:15.193Z,100.00
2019-02-22T08:25:44.712Z,100.00
2019-02-22T08:28:14.206Z,100.00
2019-02-22T08:30:43.691Z,100.00
2019-02-22T08:33:13.187Z,100.00
2019-02-22T08:35:42.711Z,100.00
2019-02-22T08:38:12.211Z,100.00
2019-02-22T08:40:41.738Z,100.00
2019-02-22T08:43:11.226Z,100.00
2019-02-22T08:45:40.713Z,100.00
2019-02-22T08:48:10.217Z,100.00
2019-02-22T08:50:39.731Z,100.00
2019-02-22T08:53:09.246Z,100.00
2019-02-22T08:55:38.753Z,100.00
2019-02-22T08:58:08.244Z,100.00
2019-02-22T09:00:37.893Z,100.00
2019-02-22T09:03:07.450Z,100.00
2019-02-22T09:05:37.049Z,100.00
2019-02-22T09:08:06.618Z,100.00
2019-02-22T09:10:36.128Z,100.00
2019-02-22T09:13:05.656Z,100.00
2019-02-22T09:15:36.149Z,100.00
2019-02-22T09:18:05.654Z,100.00
2019-02-22T09:20:35.140Z,100.00
2019-02-22T09:23:07.298Z,100.00
2019-02-22T09:25:36.915Z,100.00
2019-02-22T09:28:06.494Z,100.00
2019-02-22T09:30:36.003Z,100.00
2019-02-22T09:33:05.508Z,100.00
2019-02-22T09:35:35.897Z,100.00
2019-02-22T09:38:05.733Z,100.00
2019-02-22T09:40:35.291Z,100.00
2019-02-22T09:43:04.801Z,100.00
2019-02-22T09:45:34.360Z,100.00
2019-02-22T09:48:03.949Z,100.00
2019-02-22T09:50:33.479Z,100.00
2019-02-22T09:53:02.984Z,100.00
2019-02-22T09:55:32.609Z,100.00
2019-02-22T09:58:02.112Z,100.00
2019-02-22T10:00:31.601Z,100.00
2019-02-22T10:03:01.134Z,100.00
2019-02-22T10:05:30.768Z,100.00
2019-02-22T10:08:00.294Z,100.00
2019-02-22T10:10:29.808Z,100.00
2019-02-22T10:12:59.403Z,100.00
2019-02-22T10:15:28.904Z,100.00
2019-02-22T10:17:58.408Z,100.00
2019-02-22T10:20:27.985Z,100.00
2019-02-22T10:22:57.487Z,100.00
2019-02-22T10:25:26.998Z,100.00
2019-02-22T10:27:56.491Z,96.91
2019-02-22T10:30:26.012Z,90.38
2019-02-22T10:32:55.508Z,86.56
2019-02-22T10:35:24.999Z,86.77
2019-02-22T10:37:54.484Z,84.37
2019-02-22T10:40:24.007Z,78.65
2019-02-22T10:42:53.507Z,82.88
2019-02-22T10:45:22.994Z,86.31
2019-02-22T10:47:52.520Z,91.74
2019-02-22T10:50:22.200Z,90.50
2019-02-22T10:53:01.786Z,97.04
2019-02-22T10:55:22.989Z,96.26
2019-02-22T10:57:52.495Z,94.31
2019-02-22T11:00:22.150Z,96.28
2019-02-22T11:02:51.632Z,96.84
2019-02-22T11:05:21.134Z,100.00
2019-02-22T11:07:50.603Z,99.07
2019-02-22T11:10:20.182Z,98.28
2019-02-22T11:12:49.674Z,99.90
2019-02-22T11:15:19.320Z,97.94
2019-02-22T11:17:48.832Z,98.30
2019-02-22T11:20:18.359Z,96.61
2019-02-22T11:22:47.835Z,92.77
2019-02-22T11:25:18.019Z,93.93
2019-02-22T11:27:47.523Z,90.42
2019-02-22T11:30:17.138Z,90.81
2019-02-22T11:32:46.663Z,86.87
2019-02-22T11:35:16.152Z,90.06
2019-02-22T11:37:45.642Z,85.74
2019-02-22T11:40:15.138Z,76.25
2019-02-22T11:42:44.628Z,80.75
2019-02-22T11:45:14.122Z,73.91
2019-02-22T11:47:43.608Z,76.22
2019-02-22T11:50:14.135Z,79.64
2019-02-22T11:52:43.615Z,81.06
2019-02-22T11:55:13.339Z,81.16
2019-02-22T11:57:42.840Z,82.05
2019-02-22T12:00:18.974Z,80.59
2019-02-22T12:02:49.031Z,84.66
2019-02-22T12:05:18.532Z,72.90
2019-02-22T12:07:48.213Z,71.95
2019-02-22T12:10:17.750Z,69.97
2019-02-22T12:12:47.246Z,68.53
2019-02-22T12:15:16.740Z,65.47
2019-02-22T12:17:46.223Z,69.25
2019-02-22T12:20:15.834Z,67.49
2019-02-22T12:22:45.343Z,69.60
2019-02-22T12:25:14.959Z,68.36
2019-02-22T12:27:44.481Z,69.98
2019-02-22T12:30:16.379Z,72.84
2019-02-22T12:32:45.865Z,79.26
2019-02-22T12:35:15.412Z,79.34
2019-02-22T12:37:44.914Z,79.67
2019-02-22T12:40:14.538Z,78.77
2019-02-22T12:42:44.093Z,77.30
2019-02-22T12:45:14.598Z,82.49
2019-02-22T12:47:44.099Z,81.38
2019-02-22T12:50:14.672Z,79.66
2019-02-22T12:52:44.195Z,80.79
2019-02-22T12:55:13.901Z,78.14
2019-02-22T12:57:43.379Z,77.57
2019-02-22T13:00:15.826Z,75.41
2019-02-22T13:02:45.358Z,71.12
2019-02-22T13:05:22.073Z,67.00
2019-02-22T13:07:52.691Z,67.26
2019-02-22T13:10:22.749Z,71.00
2019-02-22T13:12:52.308Z,69.43
2019-02-22T13:15:21.867Z,72.24
2019-02-22T13:17:51.534Z,68.16
2019-02-22T13:20:21.250Z,65.32
2019-02-22T13:22:50.742Z,64.11
2019-02-22T13:25:20.303Z,61.93
2019-02-22T13:27:49.810Z,59.06
2019-02-22T13:30:19.370Z,61.84
2019-02-22T13:32:48.932Z,62.48
2019-02-22T13:35:18.424Z,64.72
2019-02-22T13:37:47.923Z,67.08
2019-02-22T13:40:18.629Z,65.30
2019-02-22T13:42:48.211Z,65.85
2019-02-22T13:45:26.100Z,66.10
2019-02-22T13:47:49.183Z,67.69
2019-02-22T13:50:19.578Z,67.47
2019-02-22T13:52:49.150Z,69.84
2019-02-22T13:55:18.661Z,69.62
2019-02-22T13:57:48.154Z,67.59
2019-02-22T14:00:19.731Z,67.98
2019-02-22T14:02:49.348Z,69.69
2019-02-22T14:05:18.903Z,66.48
2019-02-22T14:07:57.024Z,66.91
2019-02-22T14:10:27.309Z,69.01
2019-02-22T14:12:56.927Z,68.25
2019-02-22T14:15:37.136Z,69.62
2019-02-22T14:17:57.664Z,69.84
2019-02-22T14:20:27.168Z,67.65
2019-02-22T14:22:56.741Z,68.78
2019-02-22T14:25:26.300Z,69.07
2019-02-22T14:27:55.863Z,69.53
2019-02-22T14:30:25.401Z,69.02
2019-02-22T14:32:54.909Z,66.73
2019-02-22T14:35:24.499Z,68.17
2019-02-22T14:37:54.063Z,67.62
2019-02-22T14:40:23.632Z,70.47
2019-02-22T14:42:53.124Z,70.10
2019-02-22T14:45:22.693Z,70.06
2019-02-22T14:47:52.175Z,70.91
2019-02-22T14:50:23.306Z,70.47
2019-02-22T14:52:53.103Z,72.26
2019-02-22T14:55:22.636Z,67.50
2019-02-22T14:57:52.188Z,68.27
2019-02-22T15:00:22.219Z,68.58
2019-02-22T15:02:51.720Z,67.75
2019-02-22T15:05:21.292Z,66.47
2019-02-22T15:07:50.866Z,66.48
2019-02-22T15:10:20.370Z,65.94
2019-02-22T15:12:49.925Z,64.72
2019-02-22T15:15:22.204Z,65.35
2019-02-22T15:17:53.367Z,65.72
2019-02-22T15:20:23.006Z,66.95
2019-02-22T15:22:52.639Z,67.93
2019-02-22T15:25:22.158Z,69.23
2019-02-22T15:27:51.639Z,68.92
2019-02-22T15:30:21.168Z,69.14
2019-02-22T15:32:50.602Z,70.06
2019-02-22T15:35:20.205Z,70.33
2019-02-22T15:37:49.733Z,70.73
2019-02-22T15:40:19.349Z,70.74
2019-02-22T15:42:48.819Z,71.19
2019-02-22T15:45:19.881Z,72.42
2019-02-22T15:47:49.679Z,71.91
2019-02-22T15:50:20.211Z,71.12
2019-02-22T15:52:50.594Z,73.62
2019-02-22T15:55:20.133Z,71.87
2019-02-22T15:57:49.740Z,74.19
2019-02-22T16:00:35.909Z,75.40
2019-02-22T16:03:05.771Z,75.02
2019-02-22T16:05:36.948Z,76.47
2019-02-22T16:08:07.651Z,75.23
2019-02-22T16:10:37.681Z,74.43
2019-02-22T16:13:07.338Z,75.32
2019-02-22T16:15:36.926Z,74.63
2019-02-22T16:18:06.427Z,75.02
2019-02-22T16:20:36.017Z,76.13
2019-02-22T16:23:05.532Z,77.28
2019-02-22T16:25:34.997Z,76.71
2019-02-22T16:28:04.589Z,76.93
2019-02-22T16:30:35.516Z,78.05
2019-02-22T16:33:05.096Z,78.47
2019-02-22T16:35:34.599Z,80.14
2019-02-22T16:38:04.265Z,80.61
2019-02-22T16:40:33.780Z,81.32
2019-02-22T16:43:03.265Z,81.97
2019-02-22T16:45:32.745Z,82.29
2019-02-22T16:48:02.297Z,83.40
2019-02-22T16:50:31.843Z,84.19
2019-02-22T16:53:01.350Z,84.33
2019-02-22T16:55:30.841Z,86.06
2019-02-22T16:58:00.410Z,87.25
2019-02-22T17:00:29.910Z,86.90
2019-02-22T17:02:59.416Z,87.76
2019-02-22T17:05:29.083Z,87.99
2019-02-22T17:07:58.639Z,89.23
2019-02-22T17:10:28.182Z,90.58
2019-02-22T17:12:57.705Z,90.49
2019-02-22T17:15:27.288Z,91.41
2019-02-22T17:17:56.784Z,91.68
2019-02-22T17:20:26.289Z,92.52
2019-02-22T17:22:55.784Z,93.13
2019-02-22T17:25:25.267Z,94.24
2019-02-22T17:27:54.843Z,95.15
2019-02-22T17:30:25.881Z,96.08
2019-02-22T17:32:55.402Z,97.15
2019-02-22T17:35:24.925Z,96.82
2019-02-22T17:37:54.381Z,98.34
2019-02-22T17:40:31.243Z,98.71
2019-02-22T17:43:00.809Z,99.12
2019-02-22T17:45:30.374Z,99.26
2019-02-22T17:47:59.892Z,99.18
2019-02-22T17:50:29.402Z,99.16
2019-02-22T17:52:58.904Z,99.22
2019-02-22T17:55:28.464Z,100.00
2019-02-22T17:57:58.082Z,100.00
2019-02-22T18:00:27.571Z,100.00
2019-02-22T18:02:57.053Z,100.00
2019-02-22T18:05:26.562Z,100.00
2019-02-22T18:07:56.043Z,100.00
2019-02-22T18:10:25.582Z,100.00
2019-02-22T18:12:55.073Z,100.00
2019-02-22T18:15:24.608Z,100.00
2019-02-22T18:17:54.180Z,100.00
2019-02-22T18:20:23.734Z,100.00
2019-02-22T18:22:53.218Z,100.00
2019-02-22T18:25:22.755Z,100.00
2019-02-22T18:27:52.242Z,100.00
2019-02-22T18:30:25.081Z,100.00
2019-02-22T18:32:54.588Z,100.00
2019-02-22T18:35:24.073Z,100.00
2019-02-22T18:37:53.568Z,100.00
2019-02-22T18:40:24.114Z,100.00
2019-02-22T18:42:53.625Z,100.00
2019-02-22T18:45:23.423Z,100.00
2019-02-22T18:47:52.935Z,100.00
2019-02-22T18:50:22.544Z,100.00
2019-02-22T18:52:52.101Z,100.00
2019-02-22T18:55:21.614Z,100.00
2019-02-22T18:57:51.192Z,100.00
2019-02-22T19:00:21.910Z,100.00
2019-02-22T19:02:51.478Z,100.00
2019-02-22T19:05:21.149Z,100.00
2019-02-22T19:07:50.639Z,100.00
2019-02-22T19:10:20.848Z,100.00
2019-02-22T19:12:50.324Z,100.00
2019-02-22T19:15:19.870Z,100.00
2019-02-22T19:17:49.424Z,100.00
2019-02-22T19:20:21.533Z,100.00
2019-02-22T19:22:51.051Z,100.00
2019-02-22T19:25:20.688Z,100.00
2019-02-22T19:27:50.361Z,100.00
2019-02-22T19:30:26.157Z,100.00
2019-02-22T19:32:57.076Z,100.00
2019-02-22T19:35:26.572Z,100.00
2019-02-22T19:37:56.140Z,100.00
2019-02-22T19:40:28.154Z,100.00
2019-02-22T19:42:57.656Z,100.00
2019-02-22T19:45:27.254Z,100.00
2019-02-22T19:47:56.910Z,100.00
2019-02-22T19:50:28.383Z,100.00
2019-02-22T19:52:57.921Z,100.00
2019-02-22T19:55:27.451Z,100.00
2019-02-22T19:57:57.076Z,100.00
2019-02-22T20:00:26.702Z,100.00
2019-02-22T20:02:56.185Z,100.00
2019-02-22T20:05:25.763Z,100.00
2019-02-22T20:07:55.254Z,100.00
2019-02-22T20:10:25.180Z,100.00
2019-02-22T20:12:54.696Z,100.00
2019-02-22T20:15:24.366Z,100.00
2019-02-22T20:17:55.113Z,100.00
2019-02-22T20:20:24.887Z,100.00
2019-02-22T20:22:54.795Z,100.00
2019-02-22T20:25:24.332Z,100.00
2019-02-22T20:27:53.859Z,100.00
2019-02-22T20:30:23.452Z,100.00
2019-02-22T20:32:52.962Z,100.00
2019-02-22T20:35:30.109Z,100.00
2019-02-22T20:37:59.783Z,100.00
2019-02-22T20:40:29.282Z,100.00
2019-02-22T20:42:58.867Z,100.00
2019-02-22T20:45:28.498Z,100.00
2019-02-22T20:48:05.287Z,100.00
2019-02-22T20:50:29.399Z,100.00
2019-02-22T20:52:58.926Z,100.00
2019-02-22T20:55:28.906Z,100.00
2019-02-22T20:58:01.488Z,100.00
2019-02-22T21:00:31.080Z,100.00
2019-02-22T21:03:00.687Z,100.00
2019-02-22T21:05:30.283Z,100.00
2019-02-22T21:07:59.794Z,100.00
2019-02-22T21:10:29.344Z,100.00
2019-02-22T21:12:58.901Z,100.00
2019-02-22T21:15:28.405Z,100.00
2019-02-22T21:17:57.916Z,100.00
2019-02-22T21:20:27.416Z,100.00
2019-02-22T21:22:56.935Z,100.00
2019-02-22T21:25:26.599Z,100.00
2019-02-22T21:27:56.132Z,100.00
2019-02-22T21:30:25.762Z,100.00
2019-02-22T21:32:55.285Z,100.00
2019-02-22T21:35:24.759Z,100.00
2019-02-22T21:37:54.326Z,100.00
2019-02-22T21:40:24.893Z,100.00
2019-02-22T21:42:54.408Z,100.00
2019-02-22T21:45:24.039Z,100.00
2019-02-22T21:47:55.524Z,100.00
2019-02-22T21:50:24.745Z,100.00
2019-02-22T21:52:54.245Z,100.00
2019-02-22T21:55:23.822Z,100.00
2019-02-22T21:57:53.318Z,100.00
2019-02-22T22:00:29.349Z,100.00
2019-02-22T22:02:58.856Z,100.00
2019-02-22T22:05:28.444Z,100.00
2019-02-22T22:07:57.912Z,100.00
2019-02-22T22:10:27.413Z,100.00
2019-02-22T22:12:57.930Z,100.00
2019-02-22T22:15:27.405Z,100.00
2019-02-22T22:17:56.968Z,100.00
2019-02-22T22:20:26.621Z,100.00
2019-02-22T22:22:56.142Z,100.00
2019-02-22T22:25:25.688Z,100.00
2019-02-22T22:27:55.252Z,100.00
2019-02-22T22:30:24.757Z,100.00
2019-02-22T22:32:54.241Z,100.00
2019-02-22T22:35:23.739Z,100.00
2019-02-22T22:37:53.266Z,100.00
2019-02-22T22:40:22.773Z,100.00
2019-02-22T22:42:52.270Z,100.00
2019-02-22T22:45:21.788Z,100.00
2019-02-22T22:47:51.289Z,100.00
2019-02-22T22:50:20.796Z,100.00
2019-02-22T22:52:50.313Z,100.00
2019-02-22T22:55:19.805Z,100.00
2019-02-22T22:57:49.324Z,100.00
2019-02-22T23:00:49.969Z,100.00
2019-02-22T23:03:20.472Z,100.00
2019-02-22T23:05:50.023Z,100.00
2019-02-22T23:08:19.592Z,100.00
2019-02-22T23:10:49.395Z,100.00
2019-02-22T23:13:19.012Z,100.00
2019-02-22T23:15:48.649Z,100.00
2019-02-22T23:18:18.126Z,100.00
2019-02-22T23:20:47.747Z,100.00
2019-02-22T23:23:17.386Z,100.00
2019-02-22T23:25:46.914Z,100.00
2019-02-22T23:28:16.457Z,100.00
2019-02-22T23:30:46.025Z,100.00
2019-02-22T23:33:15.524Z,100.00
2019-02-22T23:35:45.030Z,100.00
2019-02-22T23:38:14.798Z,100.00
2019-02-22T23:40:44.358Z,100.00
2019-02-22T23:43:13.864Z,100.00
2019-02-22T23:45:43.428Z,100.00
2019-02-22T23:48:12.939Z,100.00
2019-02-22T23:50:42.512Z,100.00
2019-02-22T23:53:11.999Z,100.00
2019-02-22T23:55:41.490Z,100.00
2019-02-22T23:58:10.980Z,100.00
